East Des Moines, Iowa
Current Conditions -  °F | °C
As of 8:54 AM on Monday 24 Nov 2014 (Local Time) from KDSM Reporting Station
Overcast Overcast  
Wind Chill: 12°   Ceiling: 2300
Heat Index: 26°   Visibility: 10mi
Dew Point: 17°   Wind: 22mph
Humidity: 69%   Direction: 300°WNW
Pressure: 29.55"   Gusts: 37mph
Location:  41.5836°N, 93.6292°W
Report Text: KDSM 241454Z 30019G32KT 10SM OVC023 M03/M08 A2955 RMK AO2 PK WND 30033/1358 SLP014 T10331083 53034
Loading
Personal Weather Stations






























Interactive Weather Map New forecast layout! Learn more

10-Day Weather Forecast

Advertisements
Track Severe Weather on mobile